OJAQ/AQJ METAR and TAF weather

Enter ICAO airport designator
Station Type Date Time Source
OJAQ METAR 2021/04/18 00:00 UTC NOAA

OJAQ 180000Z 01012KT CAVOK 25/05 Q1013 NOSIG


Station Type Date Time Source
OJAQ Decoded METAR 2021/04/18 00:00 UTC NOAA

Aqaba Airport, Jordan (OJAQ) 29-38N 035-01E 51M
Apr 17, 2021 - 08:00 PM EDT / 2021.04.18 0000 UTC
Wind: from the N (010 degrees) at 14 MPH (12 KT):0
Visibility: greater than 7 mile(s):0
Temperature: 77 F (25 C)
Dew Point: 41 F (5 C)
Relative Humidity: 27%
Pressure (altimeter): 29.91 in. Hg (1013 hPa)
ob: OJAQ 180000Z 01012KT CAVOK 25/05 Q1013 NOSIG
cycle: 0

Station Type Date Time Source
OJAQ TAF 2021/04/17 18:00 UTC NOAA

TAF OJAQ 171700Z 1718/1824 36012KT 6000 NSC

Example: see airport list